Terminal Aerodrome Forecast
Issued by NWS

Home | Current Version | Previous Version | Text Only | Print | Product List | Glossary On
Versions: 1 2 3 4 5 6 7 8 9 10 11 12 13 14 15 16 17 18 19 20 21 22 23 24 25 26 27 28 29 30 31 32 33
000
FTUS43 KDDC 231134
TAFHYS
TAF
KHYS 231134Z 2312/2412 36013KT P6SM VCSH BKN070
     FM231400 03009KT P6SM BKN040
     FM232100 VRB06KT P6SM SCT130
     FM240700 07009KT P6SM VCTS BKN070CB OVC200=

USA.gov is the U.S. government's official web portal to all federal, state and local government web resources and services.